createdAt,value
2022-12-01T00:00:03.486Z,98131.59
2022-12-01T00:02:30.710Z,98137.78
2022-12-01T00:04:58.002Z,98139.38
2022-12-01T00:07:25.466Z,98142.31
2022-12-01T00:09:52.614Z,98130.75
2022-12-01T00:12:19.733Z,98136.38
2022-12-01T00:14:46.881Z,98126.66
2022-12-01T00:17:15.377Z,98126.66
2022-12-01T00:19:42.465Z,98129.34
2022-12-01T00:22:09.657Z,98123.41
2022-12-01T00:24:36.812Z,98113.22
2022-12-01T00:27:04.067Z,98114.56
2022-12-01T00:29:31.231Z,98115.91
2022-12-01T00:31:58.386Z,98119.88
2022-12-01T00:34:26.950Z,98119.63
2022-12-01T00:36:54.090Z,98114.31
2022-12-01T00:39:21.202Z,98118.63
2022-12-01T00:41:48.316Z,98117.31
2022-12-01T00:44:15.425Z,98115.44
2022-12-01T00:46:42.575Z,98113.78
2022-12-01T00:49:12.271Z,98125.38
2022-12-01T00:51:40.816Z,98116.75
2022-12-01T00:54:08.063Z,98118.38
2022-12-01T00:56:35.166Z,98122.88
2022-12-01T00:59:02.354Z,98129.06
2022-12-01T01:01:29.558Z,98121.81
2022-12-01T01:03:58.006Z,98115.50
2022-12-01T01:06:25.128Z,98138.19
2022-12-01T01:08:53.623Z,98137.66
2022-12-01T01:11:20.972Z,98134.41
2022-12-01T01:13:48.278Z,98124.34
2022-12-01T01:16:18.326Z,98131.72
2022-12-01T01:18:46.003Z,98136.28
2022-12-01T01:21:15.117Z,98134.16
2022-12-01T01:23:42.729Z,98138.13
2022-12-01T01:26:13.784Z,98131.72
2022-12-01T01:28:41.174Z,98137.88
2022-12-01T01:31:09.926Z,98116.28
2022-12-01T01:33:37.211Z,98131.47
2022-12-01T01:36:05.497Z,98128.78
2022-12-01T01:38:33.534Z,98131.72
2022-12-01T01:41:01.102Z,98117.19
2022-12-01T01:43:54.717Z,98127.44
2022-12-01T01:46:23.878Z,98122.06
2022-12-01T01:48:54.419Z,98126.66
2022-12-01T01:51:26.381Z,98126.34
2022-12-01T01:53:56.595Z,98123.06
2022-12-01T01:56:24.301Z,98122.25
2022-12-01T01:58:53.413Z,98117.13
2022-12-01T02:01:21.714Z,98116.06
2022-12-01T02:03:52.360Z,98113.63
2022-12-01T02:06:19.989Z,98119.28
2022-12-01T02:08:47.231Z,98115.19
2022-12-01T02:11:43.689Z,98117.88
2022-12-01T02:14:33.019Z,98125.63
2022-12-01T02:17:08.845Z,98120.00
2022-12-01T02:19:54.692Z,98111.16
2022-12-01T02:22:35.444Z,98117.88
2022-12-01T02:25:19.408Z,98115.50
2022-12-01T02:28:25.731Z,98098.22
2022-12-01T02:30:58.416Z,98101.81
2022-12-01T02:33:32.339Z,98102.88
2022-12-01T02:36:04.560Z,98061.63
2022-12-01T02:38:39.403Z,98093.75
2022-12-01T02:41:11.707Z,98098.88
2022-12-01T02:43:45.736Z,98101.28
2022-12-01T02:46:18.184Z,98099.38
2022-12-01T02:48:49.562Z,98101.81
2022-12-01T02:51:20.650Z,98101.78
2022-12-01T02:53:47.981Z,98092.34
2022-12-01T02:56:15.441Z,98091.25
2022-12-01T02:58:42.718Z,98094.19
2022-12-01T03:01:32.403Z,98090.94
2022-12-01T03:04:07.987Z,98079.38
2022-12-01T03:06:44.669Z,98095.50
2022-12-01T03:09:23.190Z,98075.31
2022-12-01T03:11:58.270Z,98080.25
2022-12-01T03:14:37.915Z,98084.78
2022-12-01T03:17:10.765Z,98079.94
2022-12-01T03:19:42.930Z,98081.59
2022-12-01T03:22:14.191Z,98084.03
2022-12-01T03:27:21.736Z,98087.28
2022-12-01T03:29:54.437Z,98083.50
2022-12-01T03:32:28.960Z,98082.66
2022-12-01T03:34:59.998Z,98080.25
2022-12-01T03:37:31.873Z,98089.34
2022-12-01T03:40:01.789Z,98076.44
2022-12-01T03:42:34.769Z,98082.94
2022-12-01T03:45:07.050Z,98080.50
2022-12-01T03:47:35.780Z,98084.53
2022-12-01T03:50:05.354Z,98090.16
2022-12-01T03:52:44.014Z,98088.75
2022-12-01T03:55:17.722Z,98088.75
2022-12-01T03:57:49.365Z,98094.72
2022-12-01T04:00:17.542Z,98088.69
2022-12-01T04:02:46.134Z,98085.81
2022-12-01T04:05:13.562Z,98085.06
2022-12-01T04:07:41.070Z,98083.97
2022-12-01T04:10:09.039Z,98083.72
2022-12-01T04:12:36.495Z,98085.06
2022-12-01T04:15:05.988Z,98080.28
2022-12-01T04:17:33.058Z,98075.34
2022-12-01T04:20:02.611Z,98082.03
2022-12-01T04:22:29.968Z,98080.94
2022-12-01T04:24:57.058Z,98076.38
2022-12-01T04:27:24.256Z,98079.28
2022-12-01T04:29:51.666Z,98082.19
2022-12-01T04:32:19.026Z,98077.56
2022-12-01T04:34:46.154Z,98074.88
2022-12-01T04:37:14.594Z,98078.44
2022-12-01T04:39:41.688Z,98077.06
2022-12-01T04:42:09.518Z,98072.75
2022-12-01T04:44:36.967Z,98073.06
2022-12-01T04:47:04.502Z,98076.28
2022-12-01T04:49:32.530Z,98085.25
2022-12-01T04:51:59.620Z,98080.44
2022-12-01T04:54:28.341Z,98075.63
2022-12-01T04:56:55.441Z,98077.75
2022-12-01T04:59:22.675Z,98069.03
2022-12-01T05:01:49.922Z,98087.94
2022-12-01T05:04:17.083Z,98088.03
2022-12-01T05:06:44.236Z,98084.59
2022-12-01T05:09:17.173Z,98066.81
2022-12-01T05:11:46.562Z,98084.09
2022-12-01T05:14:13.837Z,98074.69
2022-12-01T05:16:40.974Z,98067.97
2022-12-01T05:19:08.160Z,98077.53
2022-12-01T05:21:35.255Z,98069.97
2022-12-01T05:24:02.332Z,98063.41
2022-12-01T05:26:29.458Z,98077.69
2022-12-01T05:28:57.947Z,98073.41
2022-12-01T05:31:25.166Z,98083.91
2022-12-01T05:33:52.294Z,98071.41
2022-12-01T05:36:19.419Z,98079.41
2022-12-01T05:38:46.519Z,98078.91
2022-12-01T05:41:13.719Z,98085.88
2022-12-01T05:43:40.831Z,98079.72
2022-12-01T05:46:09.497Z,98088.84
2022-12-01T05:48:36.639Z,98076.84
2022-12-01T05:51:08.757Z,98069.06
2022-12-01T05:53:35.871Z,98080.69
2022-12-01T05:56:03.419Z,98080.06
2022-12-01T05:58:30.518Z,98085.44
2022-12-01T06:00:57.705Z,98065.81
2022-12-01T06:03:26.206Z,98079.03
2022-12-01T06:05:53.300Z,98086.59
2022-12-01T06:08:20.394Z,98085.19
2022-12-01T06:10:47.656Z,98086.53
2022-12-01T06:13:14.736Z,98074.88
2022-12-01T06:15:41.834Z,98072.91
2022-12-01T06:18:09.269Z,98098.88
2022-12-01T06:20:37.781Z,98114.69
2022-12-01T06:23:04.898Z,98100.19
2022-12-01T06:25:32.015Z,98099.06
2022-12-01T06:27:59.355Z,98091.56
2022-12-01T06:30:26.606Z,98092.13
2022-12-01T06:32:53.703Z,98099.38
2022-12-01T06:35:20.783Z,98103.41
2022-12-01T06:37:49.267Z,98099.06
2022-12-01T06:40:16.784Z,98104.50
2022-12-01T06:42:44.011Z,98093.50
2022-12-01T06:45:11.845Z,98093.25
2022-12-01T06:47:38.994Z,98099.44
2022-12-01T06:50:07.124Z,98099.25
2022-12-01T06:52:34.442Z,98093.00
2022-12-01T06:55:03.050Z,98097.06
2022-12-01T06:57:30.634Z,98096.25
2022-12-01T06:59:57.993Z,98098.13
2022-12-01T07:02:25.364Z,98103.72
2022-12-01T07:04:52.505Z,98106.97
2022-12-01T07:07:19.683Z,98105.66
2022-12-01T07:09:46.983Z,98116.97
2022-12-01T07:12:15.568Z,98105.06
2022-12-01T07:14:42.835Z,98113.66
2022-12-01T07:17:10.218Z,98122.53
2022-12-01T07:19:37.382Z,98113.38
2022-12-01T07:22:04.478Z,98117.63
2022-12-01T07:24:31.813Z,98104.72
2022-12-01T07:26:58.914Z,98117.94
2022-12-01T07:29:27.351Z,98111.78
2022-12-01T07:31:54.459Z,98114.19
2022-12-01T07:34:21.531Z,98115.03
2022-12-01T07:36:48.620Z,98121.22
2022-12-01T07:39:15.867Z,98121.53
2022-12-01T07:41:42.983Z,98130.94
2022-12-01T07:44:10.436Z,98102.72
2022-12-01T07:46:39.021Z,98110.72
2022-12-01T07:49:07.001Z,98116.72
2022-12-01T07:51:34.374Z,98115.41
2022-12-01T07:54:03.636Z,98107.59
2022-12-01T07:56:31.578Z,98111.31
2022-12-01T07:58:58.892Z,98122.81
2022-12-01T08:01:26.203Z,98120.03
2022-12-01T08:03:56.761Z,98116.69
2022-12-01T08:06:24.835Z,98117.63
2022-12-01T08:08:52.307Z,98121.34
2022-12-01T08:11:21.486Z,98123.44
2022-12-01T08:13:49.412Z,98123.19
2022-12-01T08:16:18.883Z,98130.47
2022-12-01T08:18:46.482Z,98118.66
2022-12-01T08:21:16.653Z,98129.13
2022-12-01T08:23:44.538Z,98139.09
2022-12-01T08:26:14.087Z,98133.41
2022-12-01T08:28:41.546Z,98134.50
2022-12-01T08:31:10.929Z,98130.72
2022-12-01T08:33:38.148Z,98128.88
2022-12-01T08:36:06.107Z,98126.75
2022-12-01T08:38:34.843Z,98124.59
2022-12-01T08:41:02.641Z,98132.97
2022-12-01T08:43:56.063Z,98134.50
2022-12-01T08:46:16.961Z,98133.09
2022-12-01T08:48:44.109Z,98139.56
2022-12-01T08:51:13.557Z,98135.72
2022-12-01T08:53:45.689Z,98138.16
2022-12-01T08:56:16.319Z,98147.81
2022-12-01T08:58:43.796Z,98141.91
2022-12-01T09:01:13.522Z,98138.66
2022-12-01T09:03:41.258Z,98141.41
2022-12-01T09:06:10.344Z,98143.78
2022-12-01T09:08:37.721Z,98144.03
2022-12-01T09:11:09.436Z,98155.09
2022-12-01T09:13:37.565Z,98146.72
2022-12-01T09:16:07.067Z,98158.31
2022-12-01T09:18:34.754Z,98148.91
2022-12-01T09:21:10.418Z,98156.72
2022-12-01T09:23:37.681Z,98162.59
2022-12-01T09:26:10.841Z,98152.97
2022-12-01T09:28:40.801Z,98157.53
2022-12-01T09:31:09.672Z,98161.28
2022-12-01T09:33:36.839Z,98163.72
2022-12-01T09:36:06.295Z,98156.69
2022-12-01T09:38:34.683Z,98158.88
2022-12-01T09:41:04.935Z,98156.75
2022-12-01T09:43:39.706Z,98149.47
2022-12-01T09:46:11.902Z,98152.72
2022-12-01T09:48:43.417Z,98147.69
2022-12-01T09:51:14.251Z,98147.41
2022-12-01T09:53:42.379Z,98136.63
2022-12-01T09:56:19.117Z,98140.50
2022-12-01T09:58:49.778Z,98135.41
2022-12-01T10:01:23.040Z,98132.13
2022-12-01T10:03:56.333Z,98139.09
2022-12-01T10:06:37.074Z,98141.78
2022-12-01T10:09:14.428Z,98140.19
2022-12-01T10:11:43.800Z,98134.78
2022-12-01T10:14:19.467Z,98135.34
2022-12-01T10:16:58.573Z,98127.56
2022-12-01T10:19:32.250Z,98130.31
2022-12-01T10:22:18.954Z,98128.69
2022-12-01T10:24:54.271Z,98127.03
2022-12-01T10:27:35.755Z,98120.88
2022-12-01T10:30:09.646Z,98114.94
2022-12-01T10:32:46.592Z,98123.50
2022-12-01T10:35:16.751Z,98111.91
2022-12-01T10:37:45.286Z,98112.69
2022-12-01T10:40:13.610Z,98080.81
2022-12-01T10:42:42.819Z,98100.56
2022-12-01T10:45:15.816Z,98102.47
2022-12-01T10:48:07.980Z,98106.75
2022-12-01T10:50:35.590Z,98106.22
2022-12-01T10:53:02.873Z,98105.41
2022-12-01T10:55:33.221Z,98108.03
2022-12-01T10:58:09.249Z,98106.16
2022-12-01T11:03:31.667Z,98099.13
2022-12-01T11:06:00.609Z,98097.53
2022-12-01T11:08:33.772Z,98088.03
2022-12-01T11:11:01.603Z,98093.25
2022-12-01T11:13:31.328Z,98093.31
2022-12-01T11:16:01.630Z,98093.56
2022-12-01T11:18:32.762Z,98090.06
2022-12-01T11:21:12.342Z,98095.19
2022-12-01T11:23:45.816Z,98089.81
2022-12-01T11:26:15.771Z,98079.56
2022-12-01T11:28:51.662Z,98086.84
2022-12-01T11:31:21.722Z,98067.66
2022-12-01T11:33:52.179Z,98065.78
2022-12-01T11:36:27.050Z,98073.59
2022-12-01T11:39:00.004Z,98074.69
2022-12-01T11:41:36.459Z,98071.19
2022-12-01T11:44:12.835Z,98068.50
2022-12-01T11:47:07.667Z,98074.94
2022-12-01T11:49:46.919Z,98071.41
2022-12-01T11:52:22.861Z,98079.22
2022-12-01T11:55:05.750Z,98073.84
2022-12-01T11:57:39.378Z,98071.44
2022-12-01T12:00:14.817Z,98068.47
2022-12-01T12:02:54.599Z,98076.84
2022-12-01T12:06:17.744Z,98067.72
2022-12-01T12:09:02.664Z,98068.78
2022-12-01T12:11:38.449Z,98077.13
2022-12-01T12:14:26.116Z,98076.56
2022-12-01T12:17:11.702Z,98069.00
2022-12-01T12:20:07.537Z,98071.41
2022-12-01T12:22:50.885Z,98069.25
2022-12-01T12:25:30.015Z,98063.88
2022-12-01T12:28:08.088Z,98059.03
2022-12-01T12:30:42.582Z,98058.75
2022-12-01T12:33:31.343Z,98052.59
2022-12-01T12:36:09.748Z,98056.06
2022-12-01T12:38:54.449Z,98046.91
2022-12-01T12:41:28.178Z,98047.13
2022-12-01T12:44:13.436Z,98037.19
2022-12-01T12:46:50.020Z,98055.53
2022-12-01T12:49:29.158Z,98049.41
2022-12-01T12:52:08.178Z,98038.28
2022-12-01T12:54:43.277Z,98053.91
2022-12-01T12:57:20.764Z,98051.53
2022-12-01T12:59:53.041Z,98053.72
2022-12-01T13:02:26.288Z,98046.69
2022-12-01T13:04:59.552Z,98049.66
2022-12-01T13:07:36.689Z,98047.47
2022-12-01T13:10:13.812Z,98033.97
2022-12-01T13:12:49.223Z,98051.47
2022-12-01T13:15:18.532Z,98046.09
2022-12-01T13:17:49.907Z,98048.78
2022-12-01T13:20:20.471Z,98048.25
2022-12-01T13:22:49.991Z,98045.81
2022-12-01T13:25:23.173Z,98039.84
2022-12-01T13:27:51.276Z,98052.22
2022-12-01T13:30:21.174Z,98054.41
2022-12-01T13:32:49.210Z,98051.91
2022-12-01T13:35:26.061Z,98051.66
2022-12-01T13:37:56.498Z,98055.44
2022-12-01T13:40:25.708Z,98055.19
2022-12-01T13:42:57.670Z,98057.09
2022-12-01T13:45:25.129Z,98051.97
2022-12-01T13:47:54.012Z,98041.47
2022-12-01T13:51:00.655Z,98053.09
2022-12-01T13:53:31.554Z,98052.28
2022-12-01T13:56:27.178Z,98047.69
2022-12-01T13:58:55.218Z,98041.72
2022-12-01T14:01:44.686Z,98041.50
2022-12-01T14:04:29.863Z,98037.69
2022-12-01T14:07:22.209Z,98036.34
2022-12-01T14:09:53.035Z,98038.16
2022-12-01T14:12:23.340Z,98046.28
2022-12-01T14:14:54.522Z,98038.16
2022-12-01T14:17:27.129Z,98036.00
2022-12-01T14:19:55.423Z,98033.84
2022-12-01T14:22:33.985Z,98036.50
2022-12-01T14:25:04.751Z,98032.75
2022-12-01T14:27:39.932Z,98031.63
2022-12-01T14:30:44.076Z,98032.22
2022-12-01T14:33:43.406Z,98030.34
2022-12-01T14:36:19.382Z,98034.66
2022-12-01T14:38:48.282Z,98034.09
2022-12-01T14:41:23.543Z,98030.88
2022-12-01T14:43:56.033Z,98018.00
2022-12-01T14:46:26.438Z,98033.41
2022-12-01T14:48:54.979Z,98032.06
2022-12-01T14:51:27.473Z,98029.38
2022-12-01T14:53:55.930Z,98020.97
2022-12-01T14:56:25.682Z,98022.03
2022-12-01T14:58:57.468Z,98029.28
2022-12-01T15:01:30.415Z,98030.34
2022-12-01T15:03:59.459Z,98031.91
2022-12-01T15:06:29.823Z,98030.63
2022-12-01T15:09:32.724Z,98025.69
2022-12-01T15:12:00.719Z,98016.59
2022-12-01T15:14:33.638Z,98029.97
2022-12-01T15:17:02.018Z,98025.97
2022-12-01T15:19:34.776Z,98021.34
2022-12-01T15:22:11.420Z,98010.53
2022-12-01T15:24:38.895Z,98023.47
2022-12-01T15:27:25.496Z,98019.28
2022-12-01T15:29:53.219Z,98028.38
2022-12-01T15:32:22.067Z,98024.38
2022-12-01T15:34:52.846Z,98027.31
2022-12-01T15:37:22.546Z,98033.31
2022-12-01T15:39:53.402Z,98034.66
2022-12-01T15:42:25.808Z,98023.34
2022-12-01T15:45:00.943Z,98019.53
2022-12-01T15:47:33.831Z,98028.94
2022-12-01T15:50:01.566Z,98020.31
2022-12-01T15:52:29.187Z,98021.88
2022-12-01T15:54:59.785Z,98018.66
2022-12-01T15:57:28.302Z,98019.75
2022-12-01T15:59:57.445Z,98024.00
2022-12-01T16:02:29.899Z,98007.63
2022-12-01T16:05:03.476Z,98008.88
2022-12-01T16:08:04.922Z,98006.75
2022-12-01T16:10:29.903Z,98016.75
2022-12-01T16:13:38.777Z,98024.50
2022-12-01T16:16:30.032Z,98015.34
2022-12-01T16:18:58.873Z,98018.09
2022-12-01T16:21:26.823Z,98017.00
2022-12-01T16:24:01.284Z,98012.00
2022-12-01T16:26:29.329Z,98014.94
2022-12-01T16:28:58.570Z,98018.16
2022-12-01T16:31:26.881Z,98017.09
2022-12-01T16:34:04.065Z,98014.16
2022-12-01T16:36:33.899Z,98015.41
2022-12-01T16:39:05.783Z,98016.53
2022-12-01T16:41:37.879Z,98020.28
2022-12-01T16:44:27.441Z,98021.03
2022-12-01T16:46:54.034Z,98032.34
2022-12-01T16:49:21.293Z,98029.38
2022-12-01T16:51:57.123Z,98026.00
2022-12-01T16:54:25.579Z,98028.28
2022-12-01T16:56:52.697Z,98012.75
2022-12-01T16:59:21.134Z,98027.97
2022-12-01T17:01:48.356Z,98027.91
2022-12-01T17:04:15.490Z,98032.81
2022-12-01T17:06:42.602Z,98026.50
2022-12-01T17:09:09.844Z,98033.50
2022-12-01T17:11:36.942Z,98030.84
2022-12-01T17:14:04.033Z,98033.28
2022-12-01T17:16:32.646Z,98020.97
2022-12-01T17:19:00.037Z,98030.31
2022-12-01T17:21:27.168Z,98026.78
2022-12-01T17:23:54.369Z,98018.13
2022-12-01T17:26:22.329Z,98024.28
2022-12-01T17:28:49.500Z,98021.09
2022-12-01T17:31:16.687Z,98027.88
2022-12-01T17:33:45.190Z,98020.06
2022-12-01T17:36:13.848Z,98018.47
2022-12-01T17:38:43.124Z,98019.53
2022-12-01T17:41:12.071Z,98007.13
2022-12-01T17:43:39.949Z,98027.09
2022-12-01T17:46:09.324Z,98030.28
2022-12-01T17:48:37.918Z,98029.75
2022-12-01T17:51:07.078Z,98032.97
2022-12-01T17:53:34.554Z,98041.03
2022-12-01T17:56:01.731Z,98043.69
2022-12-01T17:58:30.190Z,98039.09
2022-12-01T18:00:57.299Z,98043.13
2022-12-01T18:03:24.487Z,98029.13
2022-12-01T18:05:56.187Z,98020.78
2022-12-01T18:08:25.942Z,98036.88
2022-12-01T18:10:53.741Z,98031.75
2022-12-01T18:13:21.652Z,98033.44
2022-12-01T18:15:48.877Z,98043.31
2022-12-01T18:18:16.087Z,98047.69
2022-12-01T18:20:44.416Z,98049.00
2022-12-01T18:23:12.575Z,98047.69
2022-12-01T18:25:41.023Z,98049.00
2022-12-01T18:28:08.114Z,98050.09
2022-12-01T18:30:35.267Z,98055.47
2022-12-01T18:33:02.407Z,98048.44
2022-12-01T18:35:31.938Z,98055.19
2022-12-01T18:37:59.291Z,98053.56
2022-12-01T18:40:26.423Z,98054.38
2022-12-01T18:42:54.906Z,98051.66
2022-12-01T18:45:22.007Z,98067.25
2022-12-01T18:47:49.112Z,98057.84
2022-12-01T18:50:16.354Z,98055.44
2022-12-01T18:52:43.489Z,98057.56
2022-12-01T18:55:10.636Z,98058.13
2022-12-01T18:57:37.725Z,98064.00
2022-12-01T19:00:08.201Z,98055.88
2022-12-01T19:02:35.328Z,98060.50
2022-12-01T19:05:02.510Z,98062.41
2022-12-01T19:07:30.324Z,98054.56
2022-12-01T19:09:57.703Z,98062.94
2022-12-01T19:12:25.023Z,98058.88
2022-12-01T19:14:52.695Z,98057.75
2022-12-01T19:17:21.664Z,98061.75
2022-12-01T19:19:49.801Z,98054.44
2022-12-01T19:22:17.201Z,98054.13
2022-12-01T19:24:49.826Z,98057.88
2022-12-01T19:27:17.911Z,98058.16
2022-12-01T19:29:45.310Z,98056.28
2022-12-01T19:32:12.794Z,98055.78
2022-12-01T19:34:41.623Z,98063.50
2022-12-01T19:37:08.992Z,98059.22
2022-12-01T19:39:36.424Z,98063.22
2022-12-01T19:42:04.201Z,98068.88
2022-12-01T19:44:31.790Z,98058.91
2022-12-01T19:46:59.780Z,98061.06
2022-12-01T19:49:27.202Z,98065.34
2022-12-01T19:51:56.035Z,98056.28
2022-12-01T19:54:23.492Z,98064.59
2022-12-01T19:56:50.904Z,98058.25
2022-12-01T19:59:18.806Z,98066.06
2022-12-01T20:01:45.983Z,98060.16
2022-12-01T20:04:13.245Z,98068.75
2022-12-01T20:06:40.353Z,98065.75
2022-12-01T20:09:08.990Z,98067.13
2022-12-01T20:11:36.647Z,98064.22
2022-12-01T20:14:05.621Z,98060.50
2022-12-01T20:16:32.961Z,98069.88
2022-12-01T20:19:00.819Z,98043.50
2022-12-01T20:21:30.886Z,98060.50
2022-12-01T20:24:00.991Z,98058.31
2022-12-01T20:26:31.827Z,98067.19
2022-12-01T20:29:00.951Z,98071.16
2022-12-01T20:31:30.173Z,98076.53
2022-12-01T20:33:59.039Z,98071.97
2022-12-01T20:36:26.835Z,98072.50
2022-12-01T20:38:54.394Z,98067.38
2022-12-01T20:41:21.884Z,98065.00
2022-12-01T20:43:50.487Z,98068.00
2022-12-01T20:46:17.645Z,98060.00
2022-12-01T20:48:44.916Z,98070.81
2022-12-01T20:51:13.671Z,98071.56
2022-12-01T20:53:47.160Z,98064.00
2022-12-01T20:56:21.750Z,98066.69
2022-12-01T20:58:50.206Z,98061.41
2022-12-01T21:01:17.647Z,98064.09
2022-12-01T21:03:46.346Z,98058.66
2022-12-01T21:06:15.335Z,98041.69
2022-12-01T21:08:44.178Z,98054.66
2022-12-01T21:11:17.890Z,98056.03
2022-12-01T21:13:45.816Z,98029.84
2022-12-01T21:16:19.728Z,98055.19
2022-12-01T21:18:50.786Z,98059.22
2022-12-01T21:21:24.402Z,98055.28
2022-12-01T21:24:16.142Z,98057.91
2022-12-01T21:26:59.668Z,98062.41
2022-12-01T21:29:28.495Z,98059.75
2022-12-01T21:32:02.962Z,98060.25
2022-12-01T21:34:33.557Z,98067.53
2022-12-01T21:37:02.342Z,98067.28
2022-12-01T21:39:30.092Z,98066.50
2022-12-01T21:42:06.891Z,98062.97
2022-12-01T21:44:37.409Z,98062.66
2022-12-01T21:47:15.692Z,98053.78
2022-12-01T21:49:42.842Z,98060.50
2022-12-01T21:52:14.390Z,98041.59
2022-12-01T21:54:41.565Z,98053.69
2022-12-01T21:57:27.242Z,98055.03
2022-12-01T21:59:58.290Z,98054.22
2022-12-01T22:02:38.905Z,98053.91
2022-12-01T22:05:25.583Z,98055.78
2022-12-01T22:07:58.985Z,98047.16
2022-12-01T22:10:53.960Z,98041.78
2022-12-01T22:13:24.518Z,98042.63
2022-12-01T22:15:53.196Z,98033.22
2022-12-01T22:18:23.543Z,98044.00
2022-12-01T22:20:50.706Z,98043.16
2022-12-01T22:23:18.776Z,98042.63
2022-12-01T22:25:47.501Z,98039.16
2022-12-01T22:28:24.412Z,98032.97
2022-12-01T22:30:52.237Z,98037.00
2022-12-01T22:33:22.715Z,98019.53
2022-12-01T22:35:52.674Z,98023.81
2022-12-01T22:38:33.666Z,98029.75
2022-12-01T22:41:03.803Z,98023.28
2022-12-01T22:43:45.926Z,98017.66
2022-12-01T22:46:25.236Z,98011.97
2022-12-01T22:48:55.559Z,98014.16
2022-12-01T22:51:28.793Z,98015.75
2022-12-01T22:54:06.023Z,98014.38
2022-12-01T22:56:37.745Z,98012.50
2022-12-01T22:59:15.008Z,98013.50
2022-12-01T23:01:48.775Z,98011.09
2022-12-01T23:04:23.129Z,98006.28
2022-12-01T23:07:02.388Z,98004.94
2022-12-01T23:09:34.837Z,98000.13
2022-12-01T23:12:16.295Z,97996.09
2022-12-01T23:14:46.004Z,97992.06
2022-12-01T23:17:16.383Z,97982.41
2022-12-01T23:19:45.281Z,97995.88
2022-12-01T23:22:14.616Z,97993.75
2022-12-01T23:24:41.925Z,97982.72
2022-12-01T23:27:09.691Z,97970.50
2022-12-01T23:29:37.153Z,97987.50
2022-12-01T23:32:04.540Z,97972.94
2022-12-01T23:34:31.692Z,97978.06
2022-12-01T23:37:00.741Z,97967.84
2022-12-01T23:39:31.881Z,97968.91
2022-12-01T23:41:59.204Z,97973.22
2022-12-01T23:44:38.798Z,97969.16
2022-12-01T23:47:14.914Z,97963.00
2022-12-01T23:49:42.100Z,97949.47
2022-12-01T23:52:16.137Z,97961.03
2022-12-01T23:54:43.352Z,97956.50
2022-12-01T23:57:16.310Z,97957.09
2022-12-01T23:59:44.178Z,97955.00
